Time;durP1;ratioP1;P1;durP2;ratioP2;P2;SDS_P1;SDS_P2;PMS_P1;PMS_P2;Temp;Humidity;BMP_temperature;BMP_pressure;BME280_temperature;BME280_humidity;BME280_pressure;Samples;Min_cycle;Max_cycle;Signal;HPM_P1;HPM_P2
2021/01/09 00:01:59;;;;;;;164.18;73.90;;;77.70;2022.40;;;;;;5094181;28;20040;-72
2021/01/09 00:04:24;;;;;;;155.30;70.43;;;77.70;2022.40;;;;;;5091965;28;20028;-72
2021/01/09 00:06:50;;;;;;;136.80;63.70;;;77.70;2022.40;;;;;;5094468;28;20027;-71
2021/01/09 00:09:16;;;;;;;123.20;60.42;;;77.70;2022.40;;;;;;5093575;28;20036;-72
2021/01/09 00:11:42;;;;;;;105.32;52.65;;;77.70;2022.40;;;;;;5095051;28;20020;-71
2021/01/09 00:14:08;;;;;;;99.03;51.42;;;77.70;2022.40;;;;;;5095358;28;20055;-72
2021/01/09 00:16:33;;;;;;;93.95;51.70;;;77.70;2022.40;;;;;;5095043;28;20039;-72
2021/01/09 00:18:59;;;;;;;97.40;53.75;;;77.70;2022.40;;;;;;5095099;28;20099;-70
2021/01/09 00:21:36;;;;;;;90.20;49.00;;;77.70;2022.40;;;;;;5094985;28;20041;-72
2021/01/09 00:24:04;;;;;;;89.63;47.20;;;77.70;2022.40;;;;;;5094913;28;20024;-70
2021/01/09 00:26:30;;;;;;;85.03;47.08;;;77.70;2022.40;;;;;;5094959;28;20028;-70
2021/01/09 00:28:56;;;;;;;83.03;45.80;;;77.70;2022.40;;;;;;5095181;28;20027;-76
2021/01/09 00:31:21;;;;;;;84.53;46.85;;;77.70;2022.40;;;;;;5094981;28;20028;-72
2021/01/09 00:33:48;;;;;;;85.72;47.90;;;77.70;1996.80;;;;;;5094827;28;20031;-73
2021/01/09 00:36:13;;;;;;;79.57;45.08;;;77.70;1996.80;;;;;;5094558;28;20028;-72
2021/01/09 00:38:39;;;;;;;83.00;44.75;;;77.60;2022.40;;;;;;5094842;28;20077;-72
2021/01/09 00:41:05;;;;;;;77.97;42.92;;;77.60;1996.80;;;;;;5094335;28;20066;-72
2021/01/09 00:43:30;;;;;;;85.50;44.13;;;77.70;1996.80;;;;;;5094839;28;20024;-72
2021/01/09 00:45:56;;;;;;;72.70;41.08;;;77.70;1996.80;;;;;;5094708;28;20024;-72
2021/01/09 00:48:22;;;;;;;74.13;42.67;;;77.60;1996.80;;;;;;5094279;28;20031;-72
2021/01/09 00:50:48;;;;;;;70.32;40.45;;;77.60;1996.80;;;;;;5094443;28;20032;-72
2021/01/09 00:53:13;;;;;;;68.07;38.35;;;77.60;1996.80;;;;;;5094477;28;20499;-72
2021/01/09 00:55:39;;;;;;;66.78;38.67;;;77.50;1996.80;;;;;;5094487;28;20032;-73
2021/01/09 00:58:05;;;;;;;67.10;37.58;;;77.50;2022.40;;;;;;5075769;28;20538;-72
2021/01/09 01:00:30;;;;;;;60.15;36.47;;;77.50;2022.40;;;;;;5093712;28;20389;-72
2021/01/09 01:02:56;;;;;;;62.65;35.85;;;77.50;2022.40;;;;;;5109820;28;20052;-72
2021/01/09 01:05:22;;;;;;;61.80;35.55;;;77.50;2022.40;;;;;;5094392;28;20024;-71
2021/01/09 01:07:47;;;;;;;61.83;36.72;;;77.50;2022.40;;;;;;5093980;28;20524;-72
2021/01/09 01:10:13;;;;;;;61.65;34.92;;;77.50;2022.40;;;;;;5094008;28;20073;-71
2021/01/09 01:12:40;;;;;;;56.38;33.35;;;77.50;2022.40;;;;;;5094478;28;20024;-71
2021/01/09 01:15:07;;;;;;;52.63;32.42;;;77.50;2022.40;;;;;;5093994;28;20493;-72
2021/01/09 01:17:32;;;;;;;57.35;34.47;;;77.50;2022.40;;;;;;5093941;28;20039;-71
2021/01/09 01:19:58;;;;;;;60.97;35.80;;;77.50;2022.40;;;;;;5093280;28;20029;-72
2021/01/09 01:22:24;;;;;;;53.85;32.72;;;77.50;2022.40;;;;;;5093958;28;20035;-72
2021/01/09 01:24:50;;;;;;;59.92;34.83;;;77.50;2022.40;;;;;;5093786;28;20032;-72
2021/01/09 01:27:15;;;;;;;57.30;33.45;;;77.50;2022.40;;;;;;5075486;28;20478;-72
2021/01/09 01:29:42;;;;;;;59.63;34.50;;;77.50;1996.80;;;;;;5093985;28;20031;-72
2021/01/09 01:32:08;;;;;;;60.80;34.75;;;77.50;1996.80;;;;;;5093820;28;20032;-72
2021/01/09 01:34:34;;;;;;;54.38;33.47;;;77.50;1996.80;;;;;;5094000;28;20038;-72
2021/01/09 01:37:00;;;;;;;57.90;33.80;;;77.40;2022.40;;;;;;5093599;28;20040;-72
2021/01/09 01:39:25;;;;;;;55.03;33.58;;;77.40;1996.80;;;;;;5076207;28;20016;-73
2021/01/09 01:41:54;;;;;;;55.08;33.33;;;77.40;1996.80;;;;;;5093819;28;20036;-72
2021/01/09 01:44:20;;;;;;;55.13;32.88;;;77.40;1996.80;;;;;;5075830;28;20016;-72
2021/01/09 01:46:47;;;;;;;57.83;33.30;;;77.40;1996.80;;;;;;5093356;28;20028;-72
2021/01/09 01:49:13;;;;;;;56.63;33.03;;;77.40;1996.80;;;;;;5093877;28;20099;-72
2021/01/09 01:51:39;;;;;;;60.63;34.13;;;77.40;1996.80;;;;;;5093651;28;20020;-72
2021/01/09 01:54:05;;;;;;;58.13;36.17;;;77.30;1996.80;;;;;;5075363;28;20119;-72
2021/01/09 01:56:31;;;;;;;65.43;36.33;;;77.30;1996.80;;;;;;5093667;28;20119;-72
2021/01/09 01:58:57;;;;;;;65.07;35.58;;;77.30;1996.80;;;;;;5109363;28;20523;-72
2021/01/09 02:01:24;;;;;;;68.05;38.33;;;77.30;1996.80;;;;;;5093630;28;20472;-72
2021/01/09 02:03:49;;;;;;;63.35;36.60;;;77.30;1996.80;;;;;;5093344;28;20044;-71
2021/01/09 02:06:19;;;;;;;68.07;37.65;;;77.30;1996.80;;;;;;5093480;28;20054;-72
2021/01/09 02:09:07;;;;;;;65.35;36.65;;;77.30;1996.80;;;;;;5093317;28;20020;-72
2021/01/09 02:11:51;;;;;;;74.88;41.15;;;77.30;1996.80;;;;;;5093864;28;20028;-71
2021/01/09 02:14:42;;;;;;;74.82;40.90;;;77.30;1996.80;;;;;;5097559;28;20023;-71
2021/01/09 02:17:08;;;;;;;67.40;38.30;;;77.30;1996.80;;;;;;5015327;28;20392;-72
2021/01/09 02:19:42;;;;;;;61.95;36.50;;;77.20;1996.80;;;;;;5015431;28;20041;-71
2021/01/09 02:22:18;;;;;;;67.67;37.30;;;77.20;1996.80;;;;;;5015244;28;20550;-71
2021/01/09 02:24:47;;;;;;;68.25;36.33;;;77.20;1996.80;;;;;;5015148;28;20079;-71
2021/01/09 02:27:13;;;;;;;75.50;43.60;;;77.20;1996.80;;;;;;5015263;28;20022;-71
2021/01/09 02:29:52;;;;;;;79.82;45.75;;;77.20;1996.80;;;;;;5015152;28;20058;-71
2021/01/09 02:32:19;;;;;;;84.32;45.65;;;77.20;1996.80;;;;;;5015139;28;20037;-73
2021/01/09 02:34:57;;;;;;;86.68;46.08;;;77.20;2022.40;;;;;;5015233;28;20030;-70
2021/01/09 02:37:24;;;;;;;88.85;47.30;;;77.20;2022.40;;;;;;5014842;28;20068;-71
2021/01/09 02:39:50;;;;;;;77.00;41.88;;;77.10;2022.40;;;;;;5015288;28;20109;-72
2021/01/09 02:42:20;;;;;;;73.85;42.85;;;77.10;2022.40;;;;;;5014998;28;20403;-72
2021/01/09 02:44:50;;;;;;;80.28;45.35;;;77.10;1996.80;;;;;;4998423;28;20380;-72
2021/01/09 02:47:15;;;;;;;70.95;43.67;;;77.20;1996.80;;;;;;4998436;28;20030;-72
2021/01/09 02:49:41;;;;;;;87.03;48.45;;;77.10;1996.80;;;;;;5014808;28;20030;-71
2021/01/09 02:52:07;;;;;;;89.28;49.72;;;77.10;1996.80;;;;;;5014485;28;20021;-71
2021/01/09 02:54:32;;;;;;;89.25;48.55;;;77.10;1996.80;;;;;;5071292;28;20032;-71
2021/01/09 02:56:58;;;;;;;76.47;43.08;;;77.10;1996.80;;;;;;5096659;28;20427;-71
2021/01/09 02:59:24;;;;;;;65.75;39.13;;;77.10;1996.80;;;;;;5096617;28;20024;-73
2021/01/09 03:01:49;;;;;;;62.88;36.88;;;77.10;1996.80;;;;;;5096588;28;20503;-71
2021/01/09 03:04:15;;;;;;;71.05;36.30;;;77.10;2022.40;;;;;;5096662;28;20024;-71
2021/01/09 03:06:42;;;;;;;62.28;35.63;;;77.20;1996.80;;;;;;5097264;28;20016;-72
2021/01/09 03:09:07;;;;;;;63.08;35.28;;;77.10;2022.40;;;;;;5096632;28;20081;-76
2021/01/09 03:11:33;;;;;;;67.63;36.92;;;77.10;1996.80;;;;;;5096769;28;20344;-71
2021/01/09 03:13:59;;;;;;;73.65;38.97;;;77.10;1996.80;;;;;;5078021;28;20051;-69
2021/01/09 03:16:25;;;;;;;76.93;40.83;;;77.10;1996.80;;;;;;5077778;28;20100;-69
2021/01/09 03:18:52;;;;;;;73.43;40.13;;;77.10;1996.80;;;;;;5096558;28;20035;-71
2021/01/09 03:21:27;;;;;;;70.28;39.17;;;77.10;1996.80;;;;;;5079710;28;20040;-71
2021/01/09 03:23:52;;;;;;;;;;;77.10;1996.80;;;;;;5096570;28;20035;-74
2021/01/09 03:26:18;;;;;;;65.60;34.95;;;77.00;1996.80;;;;;;5096743;28;19908;-77
2021/01/09 03:28:44;;;;;;;63.85;36.08;;;77.00;1996.80;;;;;;5096530;28;20458;-80
2021/01/09 03:31:09;;;;;;;61.58;36.35;;;77.00;1996.80;;;;;;5095912;28;20090;-73
2021/01/09 03:33:35;;;;;;;57.05;33.08;;;77.00;1996.80;;;;;;5096049;28;20028;-69
2021/01/09 03:36:01;;;;;;;57.78;33.55;;;77.00;1996.80;;;;;;5076835;28;20370;-77
2021/01/09 03:38:45;;;;;;;53.90;33.83;;;77.00;1996.80;;;;;;5096234;28;20024;-83
2021/01/09 03:41:10;;;;;;;54.90;32.67;;;77.00;1996.80;;;;;;5077233;28;20067;-82
2021/01/09 03:43:36;;;;;;;53.60;33.35;;;77.00;1996.80;;;;;;5078075;28;20489;-75
2021/01/09 03:46:02;;;;;;;57.65;34.30;;;77.00;1996.80;;;;;;5096388;28;20107;-70
2021/01/09 03:48:27;;;;;;;57.85;33.08;;;77.00;1996.80;;;;;;5095894;28;20470;-70
2021/01/09 03:50:53;;;;;;;60.35;36.35;;;77.00;1996.80;;;;;;5095773;28;20028;-69
2021/01/09 03:53:19;;;;;;;54.33;33.00;;;76.90;1996.80;;;;;;5095590;28;20016;-70
2021/01/09 03:55:44;;;;;;;54.13;31.85;;;76.90;1996.80;;;;;;5095597;28;20111;-70
2021/01/09 03:58:10;;;;;;;55.30;31.30;;;76.90;1996.80;;;;;;5095396;28;20378;-70
2021/01/09 04:00:36;;;;;;;53.03;30.25;;;76.90;1996.80;;;;;;5095887;28;20028;-71
2021/01/09 04:03:02;;;;;;;51.35;30.00;;;76.90;1996.80;;;;;;5095347;28;20492;-70
2021/01/09 04:05:27;;;;;;;52.38;31.25;;;76.90;1996.80;;;;;;5095457;28;20024;-69
2021/01/09 04:07:53;;;;;;;51.33;30.33;;;76.90;1996.80;;;;;;5095100;28;20024;-68
2021/01/09 04:10:19;;;;;;;55.05;32.38;;;76.90;1971.20;;;;;;5095386;28;20074;-69
2021/01/09 04:12:44;;;;;;;50.58;31.35;;;76.90;1996.80;;;;;;5077237;28;20023;-71
2021/01/09 04:15:11;;;;;;;53.22;32.70;;;76.90;1996.80;;;;;;5095048;28;20437;-69
2021/01/09 04:17:37;;;;;;;56.28;33.17;;;76.90;1996.80;;;;;;5095028;28;20050;-69
2021/01/09 04:20:04;;;;;;;57.13;32.78;;;76.90;1996.80;;;;;;5095165;28;20059;-70
2021/01/09 04:22:29;;;;;;;73.03;39.92;;;76.90;1996.80;;;;;;5094799;28;20085;-69
2021/01/09 04:24:55;;;;;;;79.03;41.33;;;76.90;1996.80;;;;;;5095248;28;20377;-69
2021/01/09 04:27:21;;;;;;;75.68;41.40;;;76.90;1996.80;;;;;;5095055;28;20533;-70
2021/01/09 04:29:46;;;;;;;94.32;49.58;;;76.90;1971.20;;;;;;5094869;28;20059;-70
2021/01/09 04:32:12;;;;;;;104.45;53.17;;;76.80;1971.20;;;;;;5094981;28;20027;-70
2021/01/09 04:34:38;;;;;;;101.63;53.65;;;76.80;1971.20;;;;;;5094180;28;20020;-69
2021/01/09 04:37:04;;;;;;;104.63;56.35;;;76.80;1971.20;;;;;;5076346;28;20032;-70
2021/01/09 04:39:29;;;;;;;94.03;53.30;;;76.80;1971.20;;;;;;5094636;28;20024;-70
2021/01/09 04:41:55;;;;;;;94.53;50.17;;;76.80;1971.20;;;;;;5094687;28;20031;-69
2021/01/09 04:44:21;;;;;;;83.90;46.85;;;76.80;1971.20;;;;;;5094698;28;20031;-69
2021/01/09 04:46:46;;;;;;;99.30;48.17;;;76.80;1971.20;;;;;;5094694;28;20382;-69
2021/01/09 04:49:12;;;;;;;97.60;45.88;;;76.80;1971.20;;;;;;5094431;28;20492;-70
2021/01/09 04:51:41;;;;;;;89.22;43.67;;;76.80;1971.20;;;;;;5094552;28;20111;-69
2021/01/09 04:54:09;;;;;;;89.20;41.70;;;76.80;1971.20;;;;;;5094553;28;20026;-69
2021/01/09 04:56:35;;;;;;;90.30;42.50;;;52.10;1971.20;;;;;;5094467;28;20032;-70
2021/01/09 04:59:04;;;;;;;88.97;42.90;;;52.10;1971.20;;;;;;5094451;28;20020;-70
2021/01/09 05:01:30;;;;;;;80.70;42.40;;;52.10;1971.20;;;;;;5093997;28;20024;-69
2021/01/09 05:03:56;;;;;;;83.82;44.33;;;52.10;1971.20;;;;;;5094009;28;20484;-70
2021/01/09 05:06:23;;;;;;;88.78;43.53;;;52.10;1971.20;;;;;;5094149;28;20024;-69
2021/01/09 05:08:48;;;;;;;99.47;46.75;;;52.10;1971.20;;;;;;5094263;28;20119;-73
2021/01/09 05:11:18;;;;;;;108.57;52.85;;;52.00;1971.20;;;;;;5094286;28;20103;-70
2021/01/09 05:13:45;;;;;;;111.03;57.58;;;52.10;1971.20;;;;;;5094214;28;20120;-73
2021/01/09 05:16:12;;;;;;;117.10;59.33;;;52.00;1971.20;;;;;;5094206;28;20373;-70
2021/01/09 05:18:39;;;;;;;121.60;62.75;;;52.00;1971.20;;;;;;5094140;28;20205;-72
2021/01/09 05:21:12;;;;;;;126.80;68.07;;;52.00;1971.20;;;;;;5093830;28;20032;-71
2021/01/09 05:23:58;;;;;;;133.38;73.40;;;52.00;1971.20;;;;;;5075718;28;20541;-70
2021/01/09 05:26:24;;;;;;;135.30;71.07;;;52.00;1971.20;;;;;;5094109;28;20435;-73
2021/01/09 05:28:57;;;;;;;129.85;66.28;;;52.00;1971.20;;;;;;5075759;28;20044;-70
2021/01/09 05:31:24;;;;;;;144.43;65.47;;;51.90;1971.20;;;;;;5088285;28;20040;-71
2021/01/09 05:33:51;;;;;;;148.18;66.47;;;51.90;1971.20;;;;;;5093780;28;20027;-72
2021/01/09 05:36:18;;;;;;;141.27;62.65;;;51.90;1971.20;;;;;;5093890;28;20058;-72
2021/01/09 05:38:45;;;;;;;118.40;52.08;;;51.90;1971.20;;;;;;5093226;28;20069;-73
2021/01/09 05:41:16;;;;;;;100.28;46.10;;;51.90;1971.20;;;;;;5093874;28;20024;-70
2021/01/09 05:43:46;;;;;;;96.40;45.42;;;51.90;1971.20;;;;;;5093895;28;20032;-70
2021/01/09 05:46:12;;;;;;;89.65;42.22;;;51.80;1971.20;;;;;;5093752;28;20482;-72
2021/01/09 05:48:40;;;;;;;86.05;40.80;;;51.90;1971.20;;;;;;5097756;28;20111;-70
2021/01/09 05:51:07;;;;;;;79.78;41.63;;;51.80;1971.20;;;;;;5098026;28;20429;-70
2021/01/09 05:53:43;;;;;;;95.43;48.97;;;51.80;1971.20;;;;;;5097663;28;20020;-73
2021/01/09 05:56:14;;;;;;;117.40;56.10;;;51.80;1971.20;;;;;;5097685;28;20020;-73
2021/01/09 05:58:40;;;;;;;215.80;88.80;;;51.80;1971.20;;;;;;5097747;28;20043;-69
2021/01/09 06:01:13;;;;;;;216.38;85.60;;;51.70;1971.20;;;;;;5097737;28;20101;-70
2021/01/09 06:03:56;;;;;;;165.95;72.57;;;51.70;1971.20;;;;;;5097652;28;20036;-70
2021/01/09 06:06:33;;;;;;;156.18;74.10;;;51.70;1971.20;;;;;;5097779;28;20020;-73
2021/01/09 06:09:03;;;;;;;196.52;91.38;;;51.70;1971.20;;;;;;5079420;28;20052;-73
2021/01/09 06:11:30;;;;;;;170.30;87.43;;;51.70;1971.20;;;;;;5079409;28;20040;-70
2021/01/09 06:14:00;;;;;;;728.28;262.55;;;51.70;1996.80;;;;;;5097554;28;20028;-69
2021/01/09 06:16:29;;;;;;;806.20;269.20;;;51.70;1971.20;;;;;;5097389;28;20044;-69
2021/01/09 06:18:57;;;;;;;1263.80;401.98;;;51.70;1996.80;;;;;;5097368;28;20035;-70
2021/01/09 06:21:23;;;;;;;792.85;277.75;;;51.70;1971.20;;;;;;5097398;28;20089;-69
2021/01/09 06:23:49;;;;;;;499.70;175.85;;;51.70;1971.20;;;;;;5097148;28;20028;-71
2021/01/09 06:26:15;;;;;;;449.17;191.13;;;51.70;1971.20;;;;;;5079046;28;20115;-70
2021/01/09 06:28:56;;;;;;;337.70;148.80;;;51.70;1996.80;;;;;;5097314;28;20077;-72
2021/01/09 06:31:24;;;;;;;231.18;113.68;;;51.70;1996.80;;;;;;5079144;28;20042;-70
2021/01/09 06:33:52;;;;;;;190.60;97.38;;;51.70;1996.80;;;;;;5097140;28;20028;-69
2021/01/09 06:36:19;;;;;;;185.05;105.90;;;51.70;1996.80;;;;;;5096947;28;20036;-70
2021/01/09 06:38:48;;;;;;;164.63;105.40;;;51.70;1971.20;;;;;;5096894;28;20031;-69
2021/01/09 06:41:17;;;;;;;160.13;94.63;;;51.70;1971.20;;;;;;5096568;28;20382;-70
2021/01/09 06:43:45;;;;;;;172.40;92.43;;;51.70;1996.80;;;;;;5097045;28;20103;-69
2021/01/09 06:46:12;;;;;;;222.23;112.95;;;51.70;1996.80;;;;;;5096660;28;20065;-69
2021/01/09 06:48:44;;;;;;;158.98;88.22;;;51.70;1996.80;;;;;;5096949;28;20027;-69
2021/01/09 06:51:35;;;;;;;114.53;67.25;;;51.70;1971.20;;;;;;5097256;28;20027;-70
2021/01/09 06:54:15;;;;;;;144.68;81.40;;;51.70;1971.20;;;;;;5096740;28;20478;-69
2021/01/09 06:56:45;;;;;;;192.98;101.35;;;51.70;1971.20;;;;;;5096464;28;20039;-70
2021/01/09 06:59:30;;;;;;;192.20;98.78;;;51.70;2022.40;;;;;;5096145;28;20070;-70
2021/01/09 07:02:17;;;;;;;130.05;71.57;;;51.80;1996.80;;;;;;5096463;28;20040;-70
2021/01/09 07:04:52;;;;;;;105.45;62.38;;;51.80;1996.80;;;;;;5096629;28;20043;-73
2021/01/09 07:07:34;;;;;;;131.23;75.18;;;51.70;1996.80;;;;;;5095894;28;20067;-73
2021/01/09 07:10:28;;;;;;;110.15;65.65;;;51.70;1996.80;;;;;;5096587;28;20401;-74
2021/01/09 07:12:55;;;;;;;120.65;71.65;;;51.80;1996.80;;;;;;5091655;28;20428;-72
2021/01/09 07:15:22;;;;;;;124.45;72.43;;;51.70;1996.80;;;;;;5068462;28;20028;-70
2021/01/09 07:17:58;;;;;;;122.75;64.03;;;51.70;1996.80;;;;;;5096443;28;20019;-70
2021/01/09 07:20:37;;;;;;;154.70;73.10;;;51.80;1996.80;;;;;;5096292;28;20452;-70
2021/01/09 07:23:08;;;;;;;183.57;85.10;;;51.80;2022.40;;;;;;5096233;28;20039;-71
2021/01/09 07:25:47;;;;;;;206.43;95.90;;;51.80;2022.40;;;;;;5095898;28;20060;-70
2021/01/09 07:28:18;;;;;;;216.90;99.80;;;51.80;2022.40;;;;;;5092431;28;20069;-70
2021/01/09 07:30:44;;;;;;;203.65;90.32;;;51.80;2022.40;;;;;;5094434;28;20043;-71
2021/01/09 07:33:14;;;;;;;164.75;77.90;;;51.90;2022.40;;;;;;5095120;28;20473;-71
2021/01/09 07:35:42;;;;;;;171.18;80.47;;;51.90;1996.80;;;;;;5094328;28;20024;-70
2021/01/09 07:38:08;;;;;;;165.23;77.55;;;51.80;2022.40;;;;;;5095078;28;20103;-71
2021/01/09 07:40:46;;;;;;;136.15;71.50;;;51.80;2022.40;;;;;;5094546;28;20024;-71
2021/01/09 07:43:44;;;;;;;131.07;71.28;;;51.70;2022.40;;;;;;5094518;28;20036;-70
2021/01/09 07:46:30;;;;;;;207.02;96.57;;;51.70;2048.00;;;;;;5094941;28;20035;-76
2021/01/09 07:49:01;;;;;;;196.88;107.50;;;51.70;2048.00;;;;;;5094343;28;20031;-74
2021/01/09 07:51:49;;;;;;;210.82;120.03;;;51.70;2048.00;;;;;;5075882;28;20024;-75
2021/01/09 07:54:40;;;;;;;228.32;124.10;;;51.70;2073.60;;;;;;5094779;28;20161;-75
2021/01/09 07:57:22;;;;;;;279.10;149.70;;;51.70;2073.60;;;;;;5094122;28;20032;-73
2021/01/09 07:59:54;;;;;;;249.82;130.18;;;51.70;2073.60;;;;;;5094438;28;20020;-74
2021/01/09 08:02:23;;;;;;;210.68;106.20;;;51.70;2073.60;;;;;;5094453;28;20044;-68
2021/01/09 08:04:48;;;;;;;197.70;101.55;;;51.70;2073.60;;;;;;5094057;28;20028;-73
2021/01/09 08:07:21;;;;;;;186.57;94.07;;;51.70;2099.20;;;;;;5093172;28;20084;-72
2021/01/09 08:09:46;;;;;;;182.82;93.72;;;51.70;2099.20;;;;;;5093575;28;20027;-68
2021/01/09 08:12:12;;;;;;;168.07;90.90;;;51.70;2099.20;;;;;;5075400;28;20377;-67
2021/01/09 08:14:38;;;;;;;198.50;105.43;;;51.80;2099.20;;;;;;5094353;28;20040;-68
2021/01/09 08:17:10;;;;;;;166.70;92.60;;;51.80;2099.20;;;;;;5075371;28;20082;-72
2021/01/09 08:19:36;;;;;;;147.68;78.25;;;51.90;2099.20;;;;;;5093646;28;20042;-66
2021/01/09 08:22:03;;;;;;;154.38;75.95;;;51.90;2099.20;;;;;;5093709;28;20473;-70
2021/01/09 08:24:30;;;;;;;139.02;73.63;;;51.90;2099.20;;;;;;5093940;28;20615;-66
2021/01/09 08:26:57;;;;;;;183.27;101.82;;;51.90;2099.20;;;;;;5093259;28;20601;-65
2021/01/09 08:29:24;;;;;;;189.13;97.20;;;52.00;2099.20;;;;;;5094137;28;20035;-66
2021/01/09 08:31:51;;;;;;;161.75;90.63;;;52.00;2099.20;;;;;;5093919;28;20028;-67
2021/01/09 08:34:21;;;;;;;129.82;77.32;;;52.10;2124.80;;;;;;5093657;28;20043;-67
2021/01/09 08:36:56;;;;;;;128.30;71.78;;;76.80;2124.80;;;;;;5094928;28;20545;-81
2021/01/09 08:39:21;;;;;;;;;;;76.90;2124.80;;;;;;5094270;28;20016;-70
2021/01/09 08:41:47;;;;;;;112.47;68.90;;;77.00;2124.80;;;;;;5093348;28;19904;-68
2021/01/09 08:44:14;;;;;;;114.85;67.32;;;77.10;2124.80;;;;;;5093662;28;20074;-73
2021/01/09 08:46:44;;;;;;;117.03;68.28;;;77.20;2124.80;;;;;;5093751;28;20043;-72
2021/01/09 08:49:27;;;;;;;136.13;82.65;;;77.40;2124.80;;;;;;5074289;28;20035;-72
2021/01/09 08:52:05;;;;;;;193.30;113.07;;;77.50;2124.80;;;;;;5093206;28;20032;-73
2021/01/09 08:54:31;;;;;;;161.18;97.18;;;77.60;2099.20;;;;;;5093604;28;20065;-71
2021/01/09 08:57:00;;;;;;;148.95;87.38;;;102.40;2073.60;;;;;;5092403;28;20090;-71
2021/01/09 08:59:26;;;;;;;137.25;80.72;;;102.50;2073.60;;;;;;5093045;28;20465;-72
2021/01/09 09:01:57;;;;;;;130.02;77.80;;;102.60;2073.60;;;;;;5074827;28;20040;-72
2021/01/09 09:04:24;;;;;;;141.07;80.65;;;102.80;2073.60;;;;;;5092985;28;20416;-72
2021/01/09 09:07:08;;;;;;;138.30;82.78;;;102.90;2048.00;;;;;;5092528;28;20031;-72
2021/01/09 09:09:40;;;;;;;167.93;96.68;;;103.10;2048.00;;;;;;5092020;28;20054;-72
2021/01/09 09:12:07;;;;;;;176.40;97.53;;;103.20;2048.00;;;;;;5072744;28;20048;-73
2021/01/09 09:14:33;;;;;;;411.50;113.05;;;128.00;2022.40;;;;;;5072529;28;20518;-72
2021/01/09 09:17:05;;;;;;;176.75;87.53;;;128.00;2022.40;;;;;;5072588;28;20075;-72
2021/01/09 09:19:38;;;;;;;152.15;84.72;;;128.10;1945.60;;;;;;5073101;28;20094;-76
2021/01/09 09:22:05;;;;;;;156.20;90.38;;;128.20;1945.60;;;;;;5072526;28;20025;-74
2021/01/09 09:24:40;;;;;;;159.98;89.95;;;128.20;1945.60;;;;;;5072950;28;20029;-73
2021/01/09 09:27:26;;;;;;;138.07;82.32;;;128.30;1920.00;;;;;;5072195;28;20108;-74
2021/01/09 09:30:14;;;;;;;152.40;97.72;;;128.40;1920.00;;;;;;5072673;28;20021;-75
2021/01/09 09:32:45;;;;;;;122.15;75.10;;;128.40;1894.40;;;;;;5072817;28;20142;-69
2021/01/09 09:35:24;;;;;;;127.22;78.10;;;128.50;1894.40;;;;;;5072689;28;20028;-73
2021/01/09 09:37:51;;;;;;;128.50;77.35;;;128.50;1868.80;;;;;;5072647;28;20694;-74
2021/01/09 09:40:36;;;;;;;189.48;113.32;;;128.60;1894.40;;;;;;5072436;28;20024;-72
2021/01/09 09:43:17;;;;;;;152.45;91.63;;;128.70;1920.00;;;;;;5072666;28;20021;-72
2021/01/09 09:46:03;;;;;;;127.40;78.32;;;128.80;1920.00;;;;;;5072241;28;20033;-73
2021/01/09 09:48:34;;;;;;;1003.30;404.95;;;128.80;1920.00;;;;;;5054114;28;20496;-70
2021/01/09 09:51:10;;;;;;;257.10;119.55;;;128.80;1920.00;;;;;;5072382;28;20024;-70
2021/01/09 09:53:39;;;;;;;184.73;100.20;;;128.90;1920.00;;;;;;5072740;28;20032;-74
2021/01/09 09:56:13;;;;;;;145.52;81.03;;;128.90;1894.40;;;;;;5072207;28;20119;-76
2021/01/09 09:58:38;;;;;;;123.38;71.65;;;153.60;1894.40;;;;;;5072662;28;20058;-76
2021/01/09 10:01:18;;;;;;;121.47;70.68;;;153.60;1894.40;;;;;;5072849;28;20071;-77
2021/01/09 10:03:44;;;;;;;119.85;66.28;;;153.80;1894.40;;;;;;5072609;28;20394;-77
2021/01/09 10:06:10;;;;;;;103.32;61.70;;;153.80;1868.80;;;;;;5072735;28;20035;-78
2021/01/09 10:08:36;;;;;;;101.28;59.03;;;153.90;1868.80;;;;;;5072379;28;20020;-77
2021/01/09 10:11:02;;;;;;;92.03;58.33;;;153.90;1868.80;;;;;;5072555;28;20025;-78
2021/01/09 10:13:29;;;;;;;84.40;52.80;;;154.00;1868.80;;;;;;5053998;28;20078;-78
2021/01/09 10:15:58;;;;;;;82.78;51.72;;;154.00;1868.80;;;;;;5072727;28;20032;-78
2021/01/09 10:18:25;;;;;;;74.75;45.50;;;154.10;1843.20;;;;;;5072929;28;20500;-77
2021/01/09 10:20:51;;;;;;;66.88;43.17;;;154.10;1817.60;;;;;;5073425;28;20021;-78
2021/01/09 10:23:17;;;;;;;64.53;38.67;;;154.10;1817.60;;;;;;5072868;28;20021;-79
2021/01/09 10:25:43;;;;;;;61.55;37.67;;;154.20;1792.00;;;;;;5072953;28;20025;-77
2021/01/09 10:28:09;;;;;;;50.17;31.60;;;154.20;1792.00;;;;;;5073134;28;20043;-71
2021/01/09 10:30:35;;;;;;;53.25;32.53;;;154.20;1766.40;;;;;;5072721;28;20025;-75
2021/01/09 10:33:02;;;;;;;72.60;47.28;;;154.30;1740.80;;;;;;5073039;28;20037;-74
2021/01/09 10:35:28;;;;;;;62.10;39.95;;;154.30;1740.80;;;;;;5075705;28;20024;-74
2021/01/09 10:37:54;;;;;;;57.53;35.65;;;154.40;1740.80;;;;;;5075821;28;20040;-74
2021/01/09 10:40:19;;;;;;;191.68;100.60;;;154.40;1740.80;;;;;;5075654;28;20031;-71
2021/01/09 10:42:45;;;;;;;168.40;86.90;;;179.60;2252.80;;;;;;5075779;28;20091;-75
2021/01/09 10:45:22;;;;;;;90.90;51.25;;;179.90;2201.60;;;;;;5075666;28;20021;-74
2021/01/09 10:47:48;;;;;;;88.80;48.65;;;204.80;2022.40;;;;;;5074871;28;20025;-73
2021/01/09 10:50:14;;;;;;;53.95;35.40;;;205.20;2073.60;;;;;;5075781;28;20351;-73
2021/01/09 10:52:40;;;;;;;99.97;57.05;;;205.00;1689.60;;;;;;5075549;28;20348;-75
2021/01/09 10:55:06;;;;;;;123.93;80.38;;;204.80;1664.00;;;;;;5075223;28;20021;-73
2021/01/09 10:57:32;;;;;;;77.18;50.58;;;180.10;1664.00;;;;;;5075447;28;20059;-72
2021/01/09 10:59:58;;;;;;;56.20;37.38;;;180.00;1689.60;;;;;;5075118;28;20112;-74
2021/01/09 11:02:24;;;;;;;76.50;43.55;;;179.80;1689.60;;;;;;5074744;28;20131;-73
2021/01/09 11:04:50;;;;;;;261.27;129.55;;;179.80;1689.60;;;;;;5075575;28;20029;-73
2021/01/09 11:07:15;;;;;;;109.18;62.55;;;179.70;1715.20;;;;;;5075913;28;20025;-84
2021/01/09 11:09:41;;;;;;;79.22;48.60;;;179.70;1689.60;;;;;;5076242;28;20463;-77
2021/01/09 11:12:07;;;;;;;68.28;42.50;;;179.60;1715.20;;;;;;5075826;28;20210;-69
2021/01/09 11:14:33;;;;;;;69.50;42.40;;;179.60;1715.20;;;;;;5057310;28;20021;-72
2021/01/09 11:16:59;;;;;;;59.75;40.08;;;179.60;1792.00;;;;;;5074681;28;20505;-75
2021/01/09 11:19:25;;;;;;;60.60;39.58;;;179.70;1766.40;;;;;;5075435;28;20374;-79
2021/01/09 11:22:00;;;;;;;57.63;38.90;;;179.70;1715.20;;;;;;5075530;28;20028;-80
2021/01/09 11:24:29;;;;;;;;;;;179.60;1689.60;;;;;;5075754;28;20013;-76
2021/01/09 11:26:58;;;;;;;70.85;41.50;;;179.60;1689.60;;;;;;5088979;28;19928;-68
2021/01/09 11:29:24;;;;;;;75.00;44.80;;;179.60;1689.60;;;;;;5093892;28;20107;-69
2021/01/09 11:31:56;;;;;;;64.40;39.50;;;179.50;1689.60;;;;;;5093568;28;20558;-74
2021/01/09 11:34:22;;;;;;;58.88;36.65;;;179.50;1689.60;;;;;;5091561;28;20023;-71
2021/01/09 11:36:47;;;;;;;57.60;37.08;;;179.40;1689.60;;;;;;5093785;28;20478;-71
2021/01/09 11:39:22;;;;;;;67.35;39.40;;;179.40;1715.20;;;;;;5093813;28;20020;-74
2021/01/09 11:41:48;;;;;;;;;;;179.40;1715.20;;;;;;5092773;28;20028;-73
2021/01/09 11:44:15;;;;;;;63.15;39.33;;;179.40;1715.20;;;;;;5092820;28;20342;-69
2021/01/09 11:46:41;;;;;;;54.67;36.70;;;179.30;1740.80;;;;;;5090143;28;20024;-69
2021/01/09 11:49:07;;;;;;;53.92;36.13;;;179.30;1740.80;;;;;;5092948;28;20024;-74
2021/01/09 11:51:33;;;;;;;58.38;35.53;;;179.30;1740.80;;;;;;5093617;28;20347;-74
2021/01/09 11:53:59;;;;;;;58.83;36.97;;;179.30;1740.80;;;;;;5092893;28;20035;-75
2021/01/09 11:56:24;;;;;;;52.35;34.22;;;179.30;1740.80;;;;;;5093372;28;20055;-75
2021/01/09 11:58:50;;;;;;;61.60;38.88;;;179.30;1740.80;;;;;;5093312;28;20073;-71
2021/01/09 12:01:16;;;;;;;61.92;39.05;;;179.30;1740.80;;;;;;5092882;28;20726;-74
2021/01/09 12:03:42;;;;;;;59.42;34.90;;;179.40;1740.80;;;;;;5074674;28;20040;-75
2021/01/09 12:06:08;;;;;;;56.80;35.28;;;179.40;1715.20;;;;;;5094594;28;20071;-79
2021/01/09 12:08:52;;;;;;;59.63;35.80;;;179.40;1715.20;;;;;;5094403;28;20434;-79
2021/01/09 12:11:21;;;;;;;59.58;36.22;;;179.40;1715.20;;;;;;5095032;28;20055;-76